sensor_id;sensor_type;location;lat;lon;timestamp;temperature;humidity
68943;DHT22;60852;52.190;4.422;2022-07-23T00:00:46;16.49;72.87
68943;DHT22;60852;52.190;4.422;2022-07-23T00:03:12;16.39;73.34
68943;DHT22;60852;52.190;4.422;2022-07-23T00:05:38;16.36;73.74
68943;DHT22;60852;52.190;4.422;2022-07-23T00:08:04;16.42;73.34
68943;DHT22;60852;52.190;4.422;2022-07-23T00:10:30;16.35;73.39
68943;DHT22;60852;52.190;4.422;2022-07-23T00:12:55;16.42;73.44
68943;DHT22;60852;52.190;4.422;2022-07-23T00:15:21;16.42;73.34
68943;DHT22;60852;52.190;4.422;2022-07-23T00:17:46;16.41;73.34
68943;DHT22;60852;52.190;4.422;2022-07-23T00:20:12;16.38;73.38
68943;DHT22;60852;52.190;4.422;2022-07-23T00:22:46;16.29;73.69
68943;DHT22;60852;52.190;4.422;2022-07-23T00:25:11;16.22;74.08
68943;DHT22;60852;52.190;4.422;2022-07-23T00:27:37;16.15;74.39
68943;DHT22;60852;52.190;4.422;2022-07-23T00:30:03;16.06;74.64
68943;DHT22;60852;52.190;4.422;2022-07-23T00:32:28;16.09;74.62
68943;DHT22;60852;52.190;4.422;2022-07-23T00:34:54;16.06;74.52
68943;DHT22;60852;52.190;4.422;2022-07-23T00:37:19;16.00;74.85
68943;DHT22;60852;52.190;4.422;2022-07-23T00:39:44;15.97;74.84
68943;DHT22;60852;52.190;4.422;2022-07-23T00:42:10;15.93;74.98
68943;DHT22;60852;52.190;4.422;2022-07-23T00:44:35;15.94;75.16
68943;DHT22;60852;52.190;4.422;2022-07-23T00:47:01;15.97;74.90
68943;DHT22;60852;52.190;4.422;2022-07-23T00:49:29;15.98;74.95
68943;DHT22;60852;52.190;4.422;2022-07-23T00:51:55;15.98;75.12
68943;DHT22;60852;52.190;4.422;2022-07-23T00:54:26;15.95;75.30
68943;DHT22;60852;52.190;4.422;2022-07-23T00:56:52;15.90;75.59
68943;DHT22;60852;52.190;4.422;2022-07-23T00:59:17;15.85;75.65
68943;DHT22;60852;52.190;4.422;2022-07-23T01:01:43;15.88;75.65
68943;DHT22;60852;52.190;4.422;2022-07-23T01:04:14;15.87;75.73
68943;DHT22;60852;52.190;4.422;2022-07-23T01:06:41;15.93;75.34
68943;DHT22;60852;52.190;4.422;2022-07-23T01:09:08;15.87;75.47
68943;DHT22;60852;52.190;4.422;2022-07-23T01:11:35;15.87;75.50
68943;DHT22;60852;52.190;4.422;2022-07-23T01:14:27;15.83;75.50
68943;DHT22;60852;52.190;4.422;2022-07-23T01:16:52;15.83;75.63
68943;DHT22;60852;52.190;4.422;2022-07-23T01:19:19;15.87;75.52
68943;DHT22;60852;52.190;4.422;2022-07-23T01:21:50;15.98;75.31
68943;DHT22;60852;52.190;4.422;2022-07-23T01:24:26;16.02;75.01
68943;DHT22;60852;52.190;4.422;2022-07-23T01:26:54;16.09;74.95
68943;DHT22;60852;52.190;4.422;2022-07-23T01:29:19;16.18;74.54
68943;DHT22;60852;52.190;4.422;2022-07-23T01:31:47;16.12;74.59
68943;DHT22;60852;52.190;4.422;2022-07-23T01:34:12;16.06;75.08
68943;DHT22;60852;52.190;4.422;2022-07-23T01:36:38;16.08;74.97
68943;DHT22;60852;52.190;4.422;2022-07-23T01:39:06;16.26;74.18
68943;DHT22;60852;52.190;4.422;2022-07-23T01:41:33;16.41;73.55
68943;DHT22;60852;52.190;4.422;2022-07-23T01:43:58;16.43;73.27
68943;DHT22;60852;52.190;4.422;2022-07-23T01:46:23;16.39;73.35
68943;DHT22;60852;52.190;4.422;2022-07-23T01:48:51;16.38;73.54
68943;DHT22;60852;52.190;4.422;2022-07-23T01:51:17;16.41;73.46
68943;DHT22;60852;52.190;4.422;2022-07-23T01:53:42;16.45;73.42
68943;DHT22;60852;52.190;4.422;2022-07-23T01:56:08;16.53;73.18
68943;DHT22;60852;52.190;4.422;2022-07-23T01:58:33;16.55;72.82
68943;DHT22;60852;52.190;4.422;2022-07-23T02:00:59;16.52;73.04
68943;DHT22;60852;52.190;4.422;2022-07-23T02:03:25;16.49;72.91
68943;DHT22;60852;52.190;4.422;2022-07-23T02:05:51;16.42;73.06
68943;DHT22;60852;52.190;4.422;2022-07-23T02:08:17;16.38;73.27
68943;DHT22;60852;52.190;4.422;2022-07-23T02:10:42;16.33;73.69
68943;DHT22;60852;52.190;4.422;2022-07-23T02:13:08;16.32;73.60
68943;DHT22;60852;52.190;4.422;2022-07-23T02:15:34;16.36;73.49
68943;DHT22;60852;52.190;4.422;2022-07-23T02:17:59;16.39;73.60
68943;DHT22;60852;52.190;4.422;2022-07-23T02:20:25;16.43;73.76
68943;DHT22;60852;52.190;4.422;2022-07-23T02:22:51;16.42;73.87
68943;DHT22;60852;52.190;4.422;2022-07-23T02:25:16;16.46;73.76
68943;DHT22;60852;52.190;4.422;2022-07-23T02:27:42;16.46;73.77
68943;DHT22;60852;52.190;4.422;2022-07-23T02:30:08;16.42;73.54
68943;DHT22;60852;52.190;4.422;2022-07-23T02:32:34;16.30;73.93
68943;DHT22;60852;52.190;4.422;2022-07-23T02:35:00;16.29;74.33
68943;DHT22;60852;52.190;4.422;2022-07-23T02:37:25;16.32;74.00
68943;DHT22;60852;52.190;4.422;2022-07-23T02:39:51;16.33;74.57
68943;DHT22;60852;52.190;4.422;2022-07-23T02:42:16;16.28;75.42
68943;DHT22;60852;52.190;4.422;2022-07-23T02:44:42;16.16;75.82
68943;DHT22;60852;52.190;4.422;2022-07-23T02:47:08;16.09;75.96
68943;DHT22;60852;52.190;4.422;2022-07-23T02:49:33;16.14;75.80
68943;DHT22;60852;52.190;4.422;2022-07-23T02:51:59;16.08;76.21
68943;DHT22;60852;52.190;4.422;2022-07-23T02:54:24;16.02;76.60
68943;DHT22;60852;52.190;4.422;2022-07-23T02:56:50;16.06;76.53
68943;DHT22;60852;52.190;4.422;2022-07-23T02:59:16;16.09;75.93
68943;DHT22;60852;52.190;4.422;2022-07-23T03:01:42;16.01;75.97
68943;DHT22;60852;52.190;4.422;2022-07-23T03:04:07;15.93;76.10
68943;DHT22;60852;52.190;4.422;2022-07-23T03:06:33;15.87;76.30
68943;DHT22;60852;52.190;4.422;2022-07-23T03:08:58;15.85;76.09
68943;DHT22;60852;52.190;4.422;2022-07-23T03:11:24;15.77;76.23
68943;DHT22;60852;52.190;4.422;2022-07-23T03:13:49;15.73;76.49
68943;DHT22;60852;52.190;4.422;2022-07-23T03:16:16;15.71;76.73
68943;DHT22;60852;52.190;4.422;2022-07-23T03:18:41;15.70;76.51
68943;DHT22;60852;52.190;4.422;2022-07-23T03:21:07;15.71;76.39
68943;DHT22;60852;52.190;4.422;2022-07-23T03:23:32;15.83;76.02
68943;DHT22;60852;52.190;4.422;2022-07-23T03:25:58;15.95;75.59
68943;DHT22;60852;52.190;4.422;2022-07-23T03:28:23;16.09;75.21
68943;DHT22;60852;52.190;4.422;2022-07-23T03:30:49;16.18;74.65
68943;DHT22;60852;52.190;4.422;2022-07-23T03:33:16;16.14;74.37
68943;DHT22;60852;52.190;4.422;2022-07-23T03:35:43;16.16;74.49
68943;DHT22;60852;52.190;4.422;2022-07-23T03:38:08;16.21;74.51
68943;DHT22;60852;52.190;4.422;2022-07-23T03:40:34;16.19;74.49
68943;DHT22;60852;52.190;4.422;2022-07-23T03:42:59;16.12;74.89
68943;DHT22;60852;52.190;4.422;2022-07-23T03:45:25;16.05;75.18
68943;DHT22;60852;52.190;4.422;2022-07-23T03:47:51;16.04;75.41
68943;DHT22;60852;52.190;4.422;2022-07-23T03:50:16;16.12;75.33
68943;DHT22;60852;52.190;4.422;2022-07-23T03:52:41;16.26;74.75
68943;DHT22;60852;52.190;4.422;2022-07-23T03:55:07;16.35;74.54
68943;DHT22;60852;52.190;4.422;2022-07-23T03:57:33;16.45;74.22
68943;DHT22;60852;52.190;4.422;2022-07-23T03:59:58;16.53;74.16
68943;DHT22;60852;52.190;4.422;2022-07-23T04:02:24;16.66;73.81
68943;DHT22;60852;52.190;4.422;2022-07-23T04:04:49;16.67;73.60
68943;DHT22;60852;52.190;4.422;2022-07-23T04:07:15;16.77;73.28
68943;DHT22;60852;52.190;4.422;2022-07-23T04:09:42;16.84;73.07
68943;DHT22;60852;52.190;4.422;2022-07-23T04:12:08;16.88;72.85
68943;DHT22;60852;52.190;4.422;2022-07-23T04:14:34;16.88;72.81
68943;DHT22;60852;52.190;4.422;2022-07-23T04:16:59;16.94;72.64
68943;DHT22;60852;52.190;4.422;2022-07-23T04:19:25;16.91;72.56
68943;DHT22;60852;52.190;4.422;2022-07-23T04:21:51;16.88;72.17
68943;DHT22;60852;52.190;4.422;2022-07-23T04:24:17;16.84;71.95
68943;DHT22;60852;52.190;4.422;2022-07-23T04:26:43;16.80;71.82
68943;DHT22;60852;52.190;4.422;2022-07-23T04:29:09;16.90;71.69
68943;DHT22;60852;52.190;4.422;2022-07-23T04:31:34;17.01;71.55
68943;DHT22;60852;52.190;4.422;2022-07-23T04:33:59;17.12;71.35
68943;DHT22;60852;52.190;4.422;2022-07-23T04:36:25;17.22;70.65
68943;DHT22;60852;52.190;4.422;2022-07-23T04:38:50;17.35;70.37
68943;DHT22;60852;52.190;4.422;2022-07-23T04:41:16;17.38;70.46
68943;DHT22;60852;52.190;4.422;2022-07-23T04:43:41;17.36;70.44
68943;DHT22;60852;52.190;4.422;2022-07-23T04:46:07;17.41;69.98
68943;DHT22;60852;52.190;4.422;2022-07-23T04:48:32;17.42;70.21
68943;DHT22;60852;52.190;4.422;2022-07-23T04:50:58;17.46;70.57
68943;DHT22;60852;52.190;4.422;2022-07-23T04:53:23;17.51;70.62
68943;DHT22;60852;52.190;4.422;2022-07-23T04:55:49;17.53;70.60
68943;DHT22;60852;52.190;4.422;2022-07-23T04:58:15;17.58;70.60
68943;DHT22;60852;52.190;4.422;2022-07-23T05:00:40;17.65;70.21
68943;DHT22;60852;52.190;4.422;2022-07-23T05:03:06;17.69;70.08
68943;DHT22;60852;52.190;4.422;2022-07-23T05:05:31;17.68;69.97
68943;DHT22;60852;52.190;4.422;2022-07-23T05:07:57;17.73;69.86
68943;DHT22;60852;52.190;4.422;2022-07-23T05:10:22;17.89;69.90
68943;DHT22;60852;52.190;4.422;2022-07-23T05:12:47;18.00;69.59
68943;DHT22;60852;52.190;4.422;2022-07-23T05:15:13;18.24;68.93
68943;DHT22;60852;52.190;4.422;2022-07-23T05:17:38;18.24;68.86
68943;DHT22;60852;52.190;4.422;2022-07-23T05:20:04;18.52;68.35
68943;DHT22;60852;52.190;4.422;2022-07-23T05:22:30;18.82;66.85
68943;DHT22;60852;52.190;4.422;2022-07-23T05:24:55;18.87;66.86
68943;DHT22;60852;52.190;4.422;2022-07-23T05:27:21;19.26;65.54
68943;DHT22;60852;52.190;4.422;2022-07-23T05:29:46;19.22;65.85
68943;DHT22;60852;52.190;4.422;2022-07-23T05:32:11;19.27;65.18
68943;DHT22;60852;52.190;4.422;2022-07-23T05:34:37;19.39;65.34
68943;DHT22;60852;52.190;4.422;2022-07-23T05:37:02;19.87;63.42
68943;DHT22;60852;52.190;4.422;2022-07-23T05:39:28;20.52;61.26
68943;DHT22;60852;52.190;4.422;2022-07-23T05:41:53;20.75;60.02
68943;DHT22;60852;52.190;4.422;2022-07-23T05:44:18;21.18;58.87
68943;DHT22;60852;52.190;4.422;2022-07-23T05:46:44;22.02;56.35
68943;DHT22;60852;52.190;4.422;2022-07-23T05:49:09;21.82;55.69
68943;DHT22;60852;52.190;4.422;2022-07-23T05:51:35;21.11;58.07
68943;DHT22;60852;52.190;4.422;2022-07-23T05:54:00;20.87;58.59
68943;DHT22;60852;52.190;4.422;2022-07-23T05:56:26;20.84;59.17
68943;DHT22;60852;52.190;4.422;2022-07-23T05:58:51;21.11;58.77
68943;DHT22;60852;52.190;4.422;2022-07-23T06:01:17;22.10;55.90
68943;DHT22;60852;52.190;4.422;2022-07-23T06:03:42;23.16;52.98
68943;DHT22;60852;52.190;4.422;2022-07-23T06:06:08;23.87;50.94
68943;DHT22;60852;52.190;4.422;2022-07-23T06:08:33;24.48;49.18
68943;DHT22;60852;52.190;4.422;2022-07-23T06:10:58;24.70;48.84
68943;DHT22;60852;52.190;4.422;2022-07-23T06:13:24;24.97;48.01
68943;DHT22;60852;52.190;4.422;2022-07-23T06:15:49;24.86;47.86
68943;DHT22;60852;52.190;4.422;2022-07-23T06:18:15;25.00;47.31
68943;DHT22;60852;52.190;4.422;2022-07-23T06:20:41;25.10;47.59
68943;DHT22;60852;52.190;4.422;2022-07-23T06:23:06;24.69;48.21
68943;DHT22;60852;52.190;4.422;2022-07-23T06:25:32;23.66;50.73
68943;DHT22;60852;52.190;4.422;2022-07-23T06:27:57;23.30;52.46
68943;DHT22;60852;52.190;4.422;2022-07-23T06:30:23;22.91;53.61
68943;DHT22;60852;52.190;4.422;2022-07-23T06:32:49;22.60;53.48
68943;DHT22;60852;52.190;4.422;2022-07-23T06:35:15;22.20;54.37
68943;DHT22;60852;52.190;4.422;2022-07-23T06:37:41;21.81;55.77
68943;DHT22;60852;52.190;4.422;2022-07-23T06:40:07;21.44;56.67
68943;DHT22;60852;52.190;4.422;2022-07-23T06:42:32;21.20;56.95
68943;DHT22;60852;52.190;4.422;2022-07-23T06:44:58;20.80;58.68
68943;DHT22;60852;52.190;4.422;2022-07-23T06:47:23;20.69;59.42
68943;DHT22;60852;52.190;4.422;2022-07-23T06:49:49;20.63;59.15
68943;DHT22;60852;52.190;4.422;2022-07-23T06:52:15;20.33;59.84
68943;DHT22;60852;52.190;4.422;2022-07-23T06:54:40;20.17;60.86
68943;DHT22;60852;52.190;4.422;2022-07-23T06:57:06;20.22;61.39
68943;DHT22;60852;52.190;4.422;2022-07-23T06:59:31;20.36;61.18
68943;DHT22;60852;52.190;4.422;2022-07-23T07:01:58;20.29;61.07
68943;DHT22;60852;52.190;4.422;2022-07-23T07:04:23;20.21;61.43
68943;DHT22;60852;52.190;4.422;2022-07-23T07:06:49;20.15;61.67
68943;DHT22;60852;52.190;4.422;2022-07-23T07:09:14;20.11;62.28
68943;DHT22;60852;52.190;4.422;2022-07-23T07:11:40;20.19;61.44
68943;DHT22;60852;52.190;4.422;2022-07-23T07:14:05;20.22;60.79
68943;DHT22;60852;52.190;4.422;2022-07-23T07:16:31;20.29;61.34
68943;DHT22;60852;52.190;4.422;2022-07-23T07:18:57;20.19;61.66
68943;DHT22;60852;52.190;4.422;2022-07-23T07:21:22;20.11;61.80
68943;DHT22;60852;52.190;4.422;2022-07-23T07:23:48;20.21;62.11
68943;DHT22;60852;52.190;4.422;2022-07-23T07:26:13;20.32;61.45
68943;DHT22;60852;52.190;4.422;2022-07-23T07:28:39;20.40;60.94
68943;DHT22;60852;52.190;4.422;2022-07-23T07:31:04;20.26;60.86
68943;DHT22;60852;52.190;4.422;2022-07-23T07:33:30;20.02;62.27
68943;DHT22;60852;52.190;4.422;2022-07-23T07:35:55;19.97;62.20
68943;DHT22;60852;52.190;4.422;2022-07-23T07:38:21;19.99;62.51
68943;DHT22;60852;52.190;4.422;2022-07-23T07:40:46;19.99;61.73
68943;DHT22;60852;52.190;4.422;2022-07-23T07:43:11;19.95;62.37
68943;DHT22;60852;52.190;4.422;2022-07-23T07:45:37;19.85;61.94
68943;DHT22;60852;52.190;4.422;2022-07-23T07:48:03;19.91;61.99
68943;DHT22;60852;52.190;4.422;2022-07-23T07:50:28;20.04;61.94
68943;DHT22;60852;52.190;4.422;2022-07-23T07:52:54;20.14;60.85
68943;DHT22;60852;52.190;4.422;2022-07-23T07:55:19;20.14;61.44
68943;DHT22;60852;52.190;4.422;2022-07-23T07:57:45;20.21;61.73
68943;DHT22;60852;52.190;4.422;2022-07-23T08:00:10;20.29;60.86
68943;DHT22;60852;52.190;4.422;2022-07-23T08:02:48;20.25;60.71
68943;DHT22;60852;52.190;4.422;2022-07-23T08:05:14;20.28;61.18
68943;DHT22;60852;52.190;4.422;2022-07-23T08:07:40;20.43;60.77
68943;DHT22;60852;52.190;4.422;2022-07-23T08:10:07;20.56;60.24
68943;DHT22;60852;52.190;4.422;2022-07-23T08:12:48;20.65;59.74
68943;DHT22;60852;52.190;4.422;2022-07-23T08:15:16;20.69;60.07
68943;DHT22;60852;52.190;4.422;2022-07-23T08:17:43;20.77;58.93
68943;DHT22;60852;52.190;4.422;2022-07-23T08:20:11;20.80;59.00
68943;DHT22;60852;52.190;4.422;2022-07-23T08:22:44;20.84;58.46
68943;DHT22;60852;52.190;4.422;2022-07-23T08:25:10;20.87;59.09
68943;DHT22;60852;52.190;4.422;2022-07-23T08:27:35;20.72;58.71
68943;DHT22;60852;52.190;4.422;2022-07-23T08:30:01;20.56;59.18
68943;DHT22;60852;52.190;4.422;2022-07-23T08:32:26;20.59;58.86
68943;DHT22;60852;52.190;4.422;2022-07-23T08:34:52;20.63;59.18
68943;DHT22;60852;52.190;4.422;2022-07-23T08:37:17;20.75;58.80
68943;DHT22;60852;52.190;4.422;2022-07-23T08:39:42;20.84;58.71
68943;DHT22;60852;52.190;4.422;2022-07-23T08:42:08;20.91;58.49
68943;DHT22;60852;52.190;4.422;2022-07-23T08:44:35;20.84;57.93
68943;DHT22;60852;52.190;4.422;2022-07-23T08:47:01;20.86;58.32
68943;DHT22;60852;52.190;4.422;2022-07-23T08:49:27;20.87;57.96
68943;DHT22;60852;52.190;4.422;2022-07-23T08:51:54;20.93;58.20
68943;DHT22;60852;52.190;4.422;2022-07-23T08:54:21;20.97;57.57
68943;DHT22;60852;52.190;4.422;2022-07-23T08:56:48;21.11;57.95
68943;DHT22;60852;52.190;4.422;2022-07-23T08:59:13;21.28;58.24
68943;DHT22;60852;52.190;4.422;2022-07-23T09:01:39;21.41;56.97
68943;DHT22;60852;52.190;4.422;2022-07-23T09:04:04;21.15;57.54
68943;DHT22;60852;52.190;4.422;2022-07-23T09:06:30;21.11;58.10
68943;DHT22;60852;52.190;4.422;2022-07-23T09:08:56;21.12;57.93
68943;DHT22;60852;52.190;4.422;2022-07-23T09:11:21;21.21;57.82
68943;DHT22;60852;52.190;4.422;2022-07-23T09:13:49;21.32;57.69
68943;DHT22;60852;52.190;4.422;2022-07-23T09:16:31;21.41;56.75
68943;DHT22;60852;52.190;4.422;2022-07-23T09:19:05;21.58;56.25
68943;DHT22;60852;52.190;4.422;2022-07-23T09:21:37;21.65;57.04
68943;DHT22;60852;52.190;4.422;2022-07-23T09:24:13;21.75;56.51
68943;DHT22;60852;52.190;4.422;2022-07-23T09:26:45;21.90;57.13
68943;DHT22;60852;52.190;4.422;2022-07-23T09:29:25;22.06;56.35
68943;DHT22;60852;52.190;4.422;2022-07-23T09:31:57;22.07;57.09
68943;DHT22;60852;52.190;4.422;2022-07-23T09:34:31;22.07;57.34
68943;DHT22;60852;52.190;4.422;2022-07-23T09:37:13;22.14;57.04
68943;DHT22;60852;52.190;4.422;2022-07-23T09:39:38;22.20;56.79
68943;DHT22;60852;52.190;4.422;2022-07-23T09:44:45;22.03;57.71
68943;DHT22;60852;52.190;4.422;2022-07-23T09:47:10;22.00;57.72
68943;DHT22;60852;52.190;4.422;2022-07-23T09:49:37;21.97;56.71
68943;DHT22;60852;52.190;4.422;2022-07-23T09:52:03;21.99;57.18
68943;DHT22;60852;52.190;4.422;2022-07-23T09:54:37;22.06;58.12
68943;DHT22;60852;52.190;4.422;2022-07-23T09:57:07;22.17;57.09
68943;DHT22;60852;52.190;4.422;2022-07-23T09:59:38;22.24;56.20
68943;DHT22;60852;52.190;4.422;2022-07-23T10:02:07;22.29;57.04
68943;DHT22;60852;52.190;4.422;2022-07-23T10:04:33;22.43;57.21
68943;DHT22;60852;52.190;4.422;2022-07-23T10:07:02;23.24;54.45
68943;DHT22;60852;52.190;4.422;2022-07-23T10:09:31;24.14;52.92
68943;DHT22;60852;52.190;4.422;2022-07-23T10:12:00;24.82;50.64
68943;DHT22;60852;52.190;4.422;2022-07-23T10:14:31;25.39;49.50
68943;DHT22;60852;52.190;4.422;2022-07-23T10:17:00;25.72;48.64
68943;DHT22;60852;52.190;4.422;2022-07-23T10:19:27;25.78;47.59
68943;DHT22;60852;52.190;4.422;2022-07-23T10:22:07;25.99;47.70
68943;DHT22;60852;52.190;4.422;2022-07-23T10:24:53;25.99;47.86
68943;DHT22;60852;52.190;4.422;2022-07-23T10:27:49;25.76;47.61
68943;DHT22;60852;52.190;4.422;2022-07-23T10:30:18;25.90;48.02
68943;DHT22;60852;52.190;4.422;2022-07-23T10:35:47;24.86;49.76
68943;DHT22;60852;52.190;4.422;2022-07-23T10:41:02;25.27;49.67
68943;DHT22;60852;52.190;4.422;2022-07-23T10:43:29;25.58;49.10
68943;DHT22;60852;52.190;4.422;2022-07-23T10:45:56;25.69;48.55
68943;DHT22;60852;52.190;4.422;2022-07-23T10:48:26;25.84;47.80
68943;DHT22;60852;52.190;4.422;2022-07-23T10:51:15;25.89;47.55
68943;DHT22;60852;52.190;4.422;2022-07-23T10:53:59;25.75;48.41
68943;DHT22;60852;52.190;4.422;2022-07-23T10:59:25;25.44;48.32
68943;DHT22;60852;52.190;4.422;2022-07-23T11:01:51;25.30;49.29
68943;DHT22;60852;52.190;4.422;2022-07-23T11:04:16;24.79;50.08
68943;DHT22;60852;52.190;4.422;2022-07-23T11:09:30;24.36;51.66
68943;DHT22;60852;52.190;4.422;2022-07-23T11:17:37;24.38;51.90
68943;DHT22;60852;52.190;4.422;2022-07-23T11:22:55;24.39;50.95
68943;DHT22;60852;52.190;4.422;2022-07-23T11:27:49;24.31;52.24
68943;DHT22;60852;52.190;4.422;2022-07-23T11:35:37;24.21;52.58
68943;DHT22;60852;52.190;4.422;2022-07-23T11:38:06;24.25;52.71
68943;DHT22;60852;52.190;4.422;2022-07-23T11:40:34;24.26;52.39
68943;DHT22;60852;52.190;4.422;2022-07-23T11:43:03;24.32;52.09
68943;DHT22;60852;52.190;4.422;2022-07-23T11:45:51;24.28;52.67
68943;DHT22;60852;52.190;4.422;2022-07-23T11:48:27;24.25;52.46
68943;DHT22;60852;52.190;4.422;2022-07-23T11:50:55;24.35;52.40
68943;DHT22;60852;52.190;4.422;2022-07-23T11:53:32;24.55;51.44
68943;DHT22;60852;52.190;4.422;2022-07-23T11:56:10;24.51;51.64
68943;DHT22;60852;52.190;4.422;2022-07-23T11:58:36;24.52;51.33
68943;DHT22;60852;52.190;4.422;2022-07-23T12:01:04;24.58;51.52
68943;DHT22;60852;52.190;4.422;2022-07-23T12:03:29;24.65;51.26
68943;DHT22;60852;52.190;4.422;2022-07-23T12:05:59;24.47;52.02
68943;DHT22;60852;52.190;4.422;2022-07-23T12:08:25;24.29;51.82
68943;DHT22;60852;52.190;4.422;2022-07-23T12:10:51;24.22;52.23
68943;DHT22;60852;52.190;4.422;2022-07-23T12:13:19;24.17;52.89
68943;DHT22;60852;52.190;4.422;2022-07-23T12:15:46;24.08;52.62
68943;DHT22;60852;52.190;4.422;2022-07-23T12:18:18;24.11;53.25
68943;DHT22;60852;52.190;4.422;2022-07-23T12:20:48;24.10;52.79
68943;DHT22;60852;52.190;4.422;2022-07-23T12:23:17;24.14;53.07
68943;DHT22;60852;52.190;4.422;2022-07-23T12:25:45;24.08;53.30
68943;DHT22;60852;52.190;4.422;2022-07-23T12:33:09;23.97;53.86
68943;DHT22;60852;52.190;4.422;2022-07-23T12:35:35;23.98;53.66
68943;DHT22;60852;52.190;4.422;2022-07-23T12:38:05;23.78;53.60
68943;DHT22;60852;52.190;4.422;2022-07-23T12:40:32;23.64;54.74
68943;DHT22;60852;52.190;4.422;2022-07-23T12:42:59;23.70;54.46
68943;DHT22;60852;52.190;4.422;2022-07-23T12:45:27;23.80;54.28
68943;DHT22;60852;52.190;4.422;2022-07-23T12:53:23;23.85;53.73
68943;DHT22;60852;52.190;4.422;2022-07-23T12:55:50;23.84;53.81
68943;DHT22;60852;52.190;4.422;2022-07-23T12:58:20;23.87;53.77
68943;DHT22;60852;52.190;4.422;2022-07-23T13:00:58;23.82;52.92
68943;DHT22;60852;52.190;4.422;2022-07-23T13:03:27;23.69;53.77
68943;DHT22;60852;52.190;4.422;2022-07-23T13:05:54;23.64;53.57
68943;DHT22;60852;52.190;4.422;2022-07-23T13:08:20;23.57;53.95
68943;DHT22;60852;52.190;4.422;2022-07-23T13:10:46;23.66;54.31
68943;DHT22;60852;52.190;4.422;2022-07-23T13:13:14;23.77;53.57
68943;DHT22;60852;52.190;4.422;2022-07-23T13:15:41;23.80;53.56
68943;DHT22;60852;52.190;4.422;2022-07-23T13:18:07;23.90;53.12
68943;DHT22;60852;52.190;4.422;2022-07-23T13:20:32;23.94;53.34
68943;DHT22;60852;52.190;4.422;2022-07-23T13:23:00;23.97;52.81
68943;DHT22;60852;52.190;4.422;2022-07-23T13:25:26;23.84;52.79
68943;DHT22;60852;52.190;4.422;2022-07-23T13:27:51;23.90;53.38
68943;DHT22;60852;52.190;4.422;2022-07-23T13:30:17;23.97;52.74
68943;DHT22;60852;52.190;4.422;2022-07-23T13:32:42;23.82;52.99
68943;DHT22;60852;52.190;4.422;2022-07-23T13:35:08;23.77;53.46
68943;DHT22;60852;52.190;4.422;2022-07-23T13:37:34;23.80;53.70
68943;DHT22;60852;52.190;4.422;2022-07-23T13:40:00;23.80;53.40
68943;DHT22;60852;52.190;4.422;2022-07-23T13:42:25;23.71;53.92
68943;DHT22;60852;52.190;4.422;2022-07-23T13:44:51;23.66;53.61
68943;DHT22;60852;52.190;4.422;2022-07-23T13:47:16;23.73;53.46
68943;DHT22;60852;52.190;4.422;2022-07-23T13:49:41;23.93;52.99
68943;DHT22;60852;52.190;4.422;2022-07-23T13:52:07;24.01;53.16
68943;DHT22;60852;52.190;4.422;2022-07-23T13:54:32;24.01;52.50
68943;DHT22;60852;52.190;4.422;2022-07-23T13:56:58;23.94;52.48
68943;DHT22;60852;52.190;4.422;2022-07-23T13:59:23;23.93;53.18
68943;DHT22;60852;52.190;4.422;2022-07-23T14:01:49;23.98;53.00
68943;DHT22;60852;52.190;4.422;2022-07-23T14:04:14;23.97;53.01
68943;DHT22;60852;52.190;4.422;2022-07-23T14:06:40;23.82;52.52
68943;DHT22;60852;52.190;4.422;2022-07-23T14:09:06;23.78;52.70
68943;DHT22;60852;52.190;4.422;2022-07-23T14:11:31;23.82;52.31
68943;DHT22;60852;52.190;4.422;2022-07-23T14:13:58;23.87;51.36
68943;DHT22;60852;52.190;4.422;2022-07-23T14:16:26;23.94;50.54
68943;DHT22;60852;52.190;4.422;2022-07-23T14:18:51;24.01;50.96
68943;DHT22;60852;52.190;4.422;2022-07-23T14:21:17;24.04;51.67
68943;DHT22;60852;52.190;4.422;2022-07-23T14:23:42;24.01;51.15
68943;DHT22;60852;52.190;4.422;2022-07-23T14:26:08;23.97;51.60
68943;DHT22;60852;52.190;4.422;2022-07-23T14:28:33;24.00;51.96
68943;DHT22;60852;52.190;4.422;2022-07-23T14:30:59;24.07;51.33
68943;DHT22;60852;52.190;4.422;2022-07-23T14:33:24;24.24;51.28
68943;DHT22;60852;52.190;4.422;2022-07-23T14:35:50;24.38;52.00
68943;DHT22;60852;52.190;4.422;2022-07-23T14:38:16;24.38;49.95
68943;DHT22;60852;52.190;4.422;2022-07-23T14:40:41;24.26;51.35
68943;DHT22;60852;52.190;4.422;2022-07-23T14:43:08;24.33;49.78
68943;DHT22;60852;52.190;4.422;2022-07-23T14:45:33;24.25;50.42
68943;DHT22;60852;52.190;4.422;2022-07-23T14:47:59;24.21;49.89
68943;DHT22;60852;52.190;4.422;2022-07-23T14:50:24;24.36;49.09
68943;DHT22;60852;52.190;4.422;2022-07-23T14:52:50;24.36;49.61
68943;DHT22;60852;52.190;4.422;2022-07-23T14:55:15;24.36;49.33
68943;DHT22;60852;52.190;4.422;2022-07-23T14:57:42;24.49;48.00
68943;DHT22;60852;52.190;4.422;2022-07-23T15:00:08;24.60;48.87
68943;DHT22;60852;52.190;4.422;2022-07-23T15:02:34;24.69;48.35
68943;DHT22;60852;52.190;4.422;2022-07-23T15:04:59;24.72;48.25
68943;DHT22;60852;52.190;4.422;2022-07-23T15:07:27;24.75;48.04
68943;DHT22;60852;52.190;4.422;2022-07-23T15:09:53;24.73;48.23
68943;DHT22;60852;52.190;4.422;2022-07-23T15:12:18;24.72;48.58
68943;DHT22;60852;52.190;4.422;2022-07-23T15:14:44;24.79;48.44
68943;DHT22;60852;52.190;4.422;2022-07-23T15:17:09;24.80;48.30
68943;DHT22;60852;52.190;4.422;2022-07-23T15:19:35;24.73;48.59
68943;DHT22;60852;52.190;4.422;2022-07-23T15:22:00;24.68;48.39
68943;DHT22;60852;52.190;4.422;2022-07-23T15:24:26;24.73;48.82
68943;DHT22;60852;52.190;4.422;2022-07-23T15:26:51;24.70;48.81
68943;DHT22;60852;52.190;4.422;2022-07-23T15:29:17;24.60;49.51
68943;DHT22;60852;52.190;4.422;2022-07-23T15:31:42;24.53;49.06
68943;DHT22;60852;52.190;4.422;2022-07-23T15:34:08;24.48;49.26
68943;DHT22;60852;52.190;4.422;2022-07-23T15:36:33;24.51;48.98
68943;DHT22;60852;52.190;4.422;2022-07-23T15:38:58;24.58;49.08
68943;DHT22;60852;52.190;4.422;2022-07-23T15:41:24;24.62;48.82
68943;DHT22;60852;52.190;4.422;2022-07-23T15:43:50;24.62;48.74
68943;DHT22;60852;52.190;4.422;2022-07-23T15:46:16;24.60;48.21
68943;DHT22;60852;52.190;4.422;2022-07-23T15:48:42;24.69;48.76
68943;DHT22;60852;52.190;4.422;2022-07-23T15:51:07;24.83;48.15
68943;DHT22;60852;52.190;4.422;2022-07-23T15:53:33;24.86;47.88
68943;DHT22;60852;52.190;4.422;2022-07-23T15:56:00;24.68;47.73
68943;DHT22;60852;52.190;4.422;2022-07-23T15:58:27;24.58;48.67
68943;DHT22;60852;52.190;4.422;2022-07-23T16:00:53;24.51;48.86
68943;DHT22;60852;52.190;4.422;2022-07-23T16:03:19;24.39;48.04
68943;DHT22;60852;52.190;4.422;2022-07-23T16:05:44;24.39;48.85
68943;DHT22;60852;52.190;4.422;2022-07-23T16:08:10;24.42;49.31